Terminal Aerodrome Forecast
Issued by NWS

Home | Current Version | Previous Version | Text Only | Print | Product List | Glossary On
Versions: 1 2 3 4 5 6 7 8 9 10 11 12
000
FTUS46 KLOX 302340
TAFSBA
TAF
KSBA 302340Z 0100/0124 26009KT P6SM FEW080 SCT250
     FM010300 VRB03KT P6SM SCT150 BKN250
     FM011000 13006KT 3SM BR OVC005
     FM011800 20007KT 6SM BR OVC007
     FM012000 25009KT P6SM OVC250=

USA.gov is the U.S. government's official web portal to all federal, state and local government web resources and services.